Terminal Aerodrome Forecast
Issued by NWS Grand Rapids, MI

Home | Current Version | Previous Version | Text Only | Print | Product List | Glossary On
Versions: 1 2 3 4 5 6 7 8 9 10 11 12 13 14 15 16 17 18 19 20 21
203
FTUS43 KGRR 170029 AAA
TAFGRR
TAF AMD
KGRR 170029Z 1700/1724 10008KT 2SM -FZRA BR OVC006
     FM170600 08008KT 1SM -FZRA BR OVC003
     FM170900 08008KT 1/2SM -RA FG OVC003=

USA.gov is the U.S. government's official web portal to all federal, state and local government web resources and services.